KCHO/CHO METAR and TAF weather

Enter ICAO airport designator
Station Type Date Time Source
KCHO METAR 2021/09/25 11:53 UTC NOAA

KCHO 251153Z AUTO 00000KT 10SM CLR 11/09 A3010 RMK AO2 SLP189 T01110094 10117 20094 52008


Station Type Date Time Source
KCHO Decoded METAR 2021/09/25 11:53 UTC NOAA

CHARLOTTESVILLE-ALBEMARLE, VA, United States (KCHO) 38-08N 078-27W 192M
Sep 25, 2021 - 07:53 AM EDT / 2021.09.25 1153 UTC
Wind: Calm:0
Visibility: 10 mile(s):0
Sky conditions: clear
Temperature: 52.0 F (11.1 C)
Dew Point: 48.9 F (9.4 C)
Relative Humidity: 89%
Pressure (altimeter): 30.1 in. Hg (1019 hPa)
Pressure tendency: 0.02 inches (0.8 hPa) higher than three hours ago
ob: KCHO 251153Z AUTO 00000KT 10SM CLR 11/09 A3010 RMK AO2 SLP189 T01110094 10117 20094 52008
cycle: 12

Station Type Date Time Source
KCHO TAF 2021/09/25 12:33 UTC NOAA

TAF KCHO 251131Z 2512/2612 00000KT P6SM FEW250
FM251600 20003KT P6SM SCT250
FM251800 21004KT P6SM BKN250
FM252100 21004KT P6SM SCT045 BKN250
FM252300 25004KT P6SM SCT250
FM260000 00000KT P6SM FEW050 SCT250

Example: see airport list